KAND/AND METAR and TAF weather

Enter ICAO airport designator
Station Type Date Time Source
KAND METAR 2022/06/30 00:56 UTC NOAA

KAND 300056Z AUTO 13004KT 10SM CLR 26/22 A3022 RMK AO2 SLP223 T02610217


Station Type Date Time Source
KAND Decoded METAR 2022/06/30 00:56 UTC NOAA

ANDERSON COUNTY AIRPORT, SC, United States (KAND) 34-30N 82-43W 239M
Jun 29, 2022 - 08:56 PM EDT / 2022.06.30 0056 UTC
Wind: from the SE (130 degrees) at 5 MPH (4 KT):0
Visibility: 10 mile(s):0
Sky conditions: clear
Temperature: 79.0 F (26.1 C)
Dew Point: 71.1 F (21.7 C)
Relative Humidity: 76%
Pressure (altimeter): 30.22 in. Hg (1023 hPa)
ob: KAND 300056Z AUTO 13004KT 10SM CLR 26/22 A3022 RMK AO2 SLP223 T02610217
cycle: 1

Station Type Date Time Source
KAND TAF 2022/06/29 18:45 UTC NOAA

TAF KAND 291743Z 2918/3018 14005KT P6SM VCSH SCT024 BKN040
FM292300 10003KT P6SM SCT040 BKN090
FM300700 00000KT P6SM BKN007 OVC010
FM301400 11004KT P6SM BKN030

Example: see airport list